Time;durP1;ratioP1;P1;durP2;ratioP2;P2;SDS_P1;SDS_P2;PMS_P1;PMS_P2;Temp;Humidity;BMP_temperature;BMP_pressure;BME280_temperature;BME280_humidity;BME280_pressure;Samples;Min_cycle;Max_cycle;Signal;HPM_P1;HPM_P2
2021/12/29 00:01:44;;;;;;;14.98;4.00;;;;;;;7.67;99.46;99857.63;10474800;28;20048;-87
2021/12/29 00:06:45;;;;;;;5.85;3.00;;;;;;;7.67;99.82;99857.63;10474489;28;20076;-85
2021/12/29 00:11:47;;;;;;;6.90;3.53;;;;;;;7.65;99.89;99861.84;10478579;28;20152;-85
2021/12/29 00:16:49;;;;;;;7.22;3.00;;;;;;;7.68;99.96;99879.88;10484390;28;20106;-86
2021/12/29 00:22:01;;;;;;;9.90;3.13;;;;;;;7.67;99.40;99878.16;10453096;28;20098;-87
2021/12/29 00:27:05;;;;;;;11.05;4.05;;;;;;;7.68;99.01;99882.44;10478264;28;20120;-85
2021/12/29 00:32:07;;;;;;;4.80;3.00;;;;;;;7.68;99.66;99887.56;10479817;28;20109;-86
2021/12/29 00:37:28;;;;;;;10.25;3.72;;;;;;;7.67;99.11;99908.91;10477362;28;20048;-88
2021/12/29 00:42:48;;;;;;;8.30;3.55;;;;;;;7.68;98.84;99923.47;10481756;28;20045;-87
2021/12/29 00:48:12;;;;;;;10.00;3.92;;;;;;;7.67;99.14;99944.81;10483182;28;20102;-89
2021/12/29 00:53:14;;;;;;;10.50;4.10;;;;;;;7.66;98.59;99963.56;10480337;28;20480;-85
2021/12/29 00:58:16;;;;;;;12.45;5.07;;;;;;;7.66;98.65;99984.97;10470188;28;20091;-86
2021/12/29 01:03:18;;;;;;;12.07;4.72;;;;;;;7.69;98.84;99999.56;10455745;28;20037;-86
2021/12/29 01:08:20;;;;;;;10.32;4.93;;;;;;;7.67;98.93;100016.59;10473749;28;20079;-85
2021/12/29 01:13:30;;;;;;;7.05;4.13;;;;;;;7.63;99.17;100018.22;10487171;28;20040;-82
2021/12/29 01:18:33;;;;;;;9.47;5.00;;;;;;;7.64;99.01;100040.47;10492373;28;20132;-84
2021/12/29 01:23:36;;;;;;;8.93;4.93;;;;;;;7.62;99.79;100049.81;10467975;28;20048;-85
2021/12/29 01:28:38;;;;;;;12.68;5.60;;;;;;;7.63;99.75;100067.78;10470521;28;20524;-84
2021/12/29 01:33:39;;;;;;;9.02;5.55;;;;;;;7.63;99.94;100072.91;10502082;28;20041;-83
2021/12/29 01:38:41;;;;;;;8.77;5.35;;;;;;;7.63;100.00;100090.84;10463127;28;20049;-85
2021/12/29 01:43:43;;;;;;;11.98;6.32;;;;;;;7.65;99.64;100116.53;10497740;28;20562;-83
2021/12/29 01:48:45;;;;;;;15.30;6.35;;;;;;;7.69;100.00;100135.44;10465131;28;20078;-83
2021/12/29 01:54:01;;;;;;;13.10;6.82;;;;;;;7.68;99.73;100138.81;10434703;28;20072;-84
2021/12/29 01:59:03;;;;;;;11.70;6.22;;;;;;;7.63;99.62;100137.00;10493413;28;20037;-83
2021/12/29 02:04:04;;;;;;;13.82;6.15;;;;;;;7.66;99.92;100154.19;10469433;28;20043;-83
2021/12/29 02:09:10;;;;;;;10.57;6.10;;;;;;;7.61;98.96;100151.50;10459260;28;20053;-84
2021/12/29 02:14:12;;;;;;;13.73;6.38;;;;;;;7.60;98.54;100165.13;10458528;28;20450;-82
2021/12/29 02:19:14;;;;;;;14.70;7.30;;;;;;;7.55;98.08;100164.16;10460300;28;20047;-83
2021/12/29 02:24:19;;;;;;;11.65;6.97;;;;;;;7.54;97.66;100164.97;10444429;28;20067;-83
2021/12/29 02:29:21;;;;;;;17.00;7.63;;;;;;;7.47;97.59;100178.47;10457373;28;20041;-84
2021/12/29 02:34:23;;;;;;;13.13;6.40;;;;;;;7.45;97.36;100185.22;10495012;28;20059;-83
2021/12/29 02:39:25;;;;;;;13.13;6.38;;;;;;;7.41;98.03;100188.56;10435977;28;20140;-83
2021/12/29 02:44:29;;;;;;;12.15;6.47;;;;;;;7.42;97.97;100208.19;10477236;28;20049;-83
2021/12/29 02:49:31;;;;;;;18.70;6.95;;;;;;;7.40;98.19;100218.41;10437933;28;20049;-84
2021/12/29 02:54:33;;;;;;;15.38;7.20;;;;;;;7.39;98.72;100221.81;10478834;28;20044;-84
2021/12/29 02:59:34;;;;;;;19.50;6.93;;;;;;;7.40;98.82;100232.94;10462236;28;20071;-84
2021/12/29 03:04:36;;;;;;;15.48;6.60;;;;;;;7.41;98.97;100240.66;10450557;28;20053;-83
2021/12/29 03:09:38;;;;;;;13.63;6.22;;;;;;;7.41;98.32;100235.53;10473398;28;20048;-84
2021/12/29 03:14:51;;;;;;;17.80;6.80;;;;;;;7.38;98.86;100244.84;10478663;28;20067;-84
2021/12/29 03:19:53;;;;;;;15.15;5.88;;;;;;;7.37;98.05;100243.09;10471082;28;20037;-84
2021/12/29 03:24:54;;;;;;;16.58;6.18;;;;;;;7.34;98.45;100253.25;10452795;28;20059;-82
2021/12/29 03:29:56;;;;;;;10.38;4.75;;;;;;;7.36;98.87;100259.28;10442194;28;20045;-84
2021/12/29 03:34:58;;;;;;;9.07;5.40;;;;;;;7.35;98.78;100267.78;10446489;28;20488;-84
2021/12/29 03:40:00;;;;;;;8.93;5.13;;;;;;;7.34;98.67;100279.75;10469862;28;20483;-84
2021/12/29 03:45:03;;;;;;;16.08;5.47;;;;;;;7.36;98.05;100279.78;10483007;28;20051;-85
2021/12/29 03:50:06;;;;;;;15.55;5.53;;;;;;;7.33;98.46;100289.97;10445706;28;20428;-83
2021/12/29 03:55:08;;;;;;;15.15;5.07;;;;;;;7.35;98.69;100301.09;10428442;28;20106;-85
2021/12/29 04:00:13;;;;;;;13.90;5.57;;;;;;;7.33;99.31;100313.88;10446801;28;20051;-84
2021/12/29 04:05:21;;;;;;;13.05;5.03;;;;;;;7.34;99.00;100325.00;10446669;28;20076;-85
2021/12/29 04:10:24;;;;;;;14.45;5.47;;;;;;;7.37;98.74;100330.22;10476253;28;20122;-84
2021/12/29 04:15:27;;;;;;;23.50;6.32;;;;;;;7.35;98.97;100342.13;10444223;28;20049;-84
2021/12/29 04:25:55;;;;;;;19.60;7.60;;;;;;;7.38;98.54;100347.34;10491462;28;20094;-84
2021/12/29 04:31:07;;;;;;;26.85;8.32;;;;;;;7.43;99.07;100348.34;10479947;28;20086;-84
2021/12/29 04:36:09;;;;;;;27.05;8.95;;;;;;;7.42;98.81;100361.97;10484303;28;20052;-85
2021/12/29 04:41:13;;;;;;;28.08;10.45;;;;;;;7.43;98.22;100356.91;10443274;28;20041;-85
2021/12/29 04:46:18;;;;;;;32.40;11.95;;;;;;;7.44;98.77;100373.16;10453960;28;20459;-85
2021/12/29 04:51:25;;;;;;;34.33;12.20;;;;;;;7.45;98.89;100378.31;10519760;28;20513;-84
2021/12/29 04:56:27;;;;;;;40.60;13.43;;;;;;;7.47;98.42;100384.38;10489330;28;20102;-85
2021/12/29 05:01:29;;;;;;;36.22;13.75;;;;;;;7.46;98.52;100386.88;10467359;28;20045;-85
2021/12/29 05:11:52;;;;;;;51.97;16.33;;;;;;;7.46;98.11;100413.38;10506026;28;20092;-89
2021/12/29 05:16:54;;;;;;;41.42;13.45;;;;;;;7.47;98.39;100414.25;10499320;28;20497;-86
2021/12/29 05:21:55;;;;;;;32.38;13.05;;;;;;;7.49;98.28;100427.97;10462516;28;20041;-85
2021/12/29 05:26:57;;;;;;;29.95;11.52;;;;;;;7.47;98.58;100427.94;10441491;28;20053;-86
2021/12/29 05:31:59;;;;;;;32.67;10.90;;;;;;;7.48;98.22;100436.50;10425677;28;20051;-86
2021/12/29 05:37:02;;;;;;;30.77;9.90;;;;;;;7.48;98.79;100441.66;10442708;28;20411;-85
2021/12/29 05:42:06;;;;;;;28.02;9.25;;;;;;;7.48;98.25;100441.66;10492811;28;20048;-82
2021/12/29 05:47:08;;;;;;;25.70;8.02;;;;;;;7.46;98.57;100453.53;10481839;28;20040;-83
2021/12/29 05:52:10;;;;;;;28.15;8.18;;;;;;;7.49;98.18;100448.47;10474276;28;20449;-83
2021/12/29 05:57:12;;;;;;;32.90;8.63;;;;;;;7.48;98.66;100451.91;10459699;28;20040;-82
2021/12/29 06:02:13;;;;;;;29.80;8.68;;;;;;;7.47;98.44;100466.38;10446205;28;20407;-83
2021/12/29 06:07:16;;;;;;;29.40;9.57;;;;;;;7.47;98.55;100475.78;10479333;28;20127;-83
2021/12/29 06:12:17;;;;;;;22.15;8.20;;;;;;;7.51;98.31;100476.75;10467158;28;20052;-83
2021/12/29 06:17:19;;;;;;;26.30;9.13;;;;;;;7.49;98.38;100474.13;10477967;28;20431;-83
2021/12/29 06:22:21;;;;;;;25.13;7.43;;;;;;;7.48;98.65;100472.41;10464914;28;20044;-83
2021/12/29 06:27:23;;;;;;;25.77;7.55;;;;;;;7.48;98.52;100492.91;10455986;28;20399;-82
2021/12/29 06:32:26;;;;;;;19.25;7.47;;;;;;;7.45;98.70;100500.50;10496544;28;20091;-82
2021/12/29 06:37:27;;;;;;;25.02;9.07;;;;;;;7.47;98.71;100501.41;10472398;28;20070;-82
2021/12/29 06:42:29;;;;;;;29.45;11.18;;;;;;;7.46;98.59;100497.97;10473086;28;20044;-83
2021/12/29 06:47:31;;;;;;;22.45;9.20;;;;;;;7.47;99.02;100506.53;10451952;28;20091;-83
2021/12/29 06:52:33;;;;;;;28.15;11.25;;;;;;;7.48;99.18;100508.28;10481199;28;20071;-83
2021/12/29 06:57:35;;;;;;;22.80;9.68;;;;;;;7.46;99.32;100509.91;10488233;28;20127;-83
2021/12/29 07:02:37;;;;;;;22.27;9.90;;;;;;;7.48;98.80;100523.66;10480292;28;20090;-83
2021/12/29 07:07:39;;;;;;;23.88;11.27;;;;;;;7.49;99.37;100524.53;10467187;28;20071;-84
2021/12/29 07:12:42;;;;;;;23.95;9.63;;;;;;;7.47;99.12;100537.31;10460045;28;20041;-83
2021/12/29 07:17:44;;;;;;;25.83;11.32;;;;;;;7.49;98.97;100530.50;10476335;28;20162;-83
2021/12/29 07:22:46;;;;;;;20.88;9.82;;;;;;;7.49;99.34;100550.16;10469206;28;20044;-83
2021/12/29 07:27:48;;;;;;;21.45;10.13;;;;;;;7.50;99.75;100563.00;10462530;28;20136;-83
2021/12/29 07:32:50;;;;;;;20.25;10.65;;;;;;;7.50;99.14;100568.13;10497191;28;20048;-84
2021/12/29 07:37:52;;;;;;;21.25;11.30;;;;;;;7.50;99.21;100575.84;10513495;28;20079;-83
2021/12/29 07:42:53;;;;;;;22.58;9.75;;;;;;;7.54;98.94;100575.13;10485968;28;20051;-82
2021/12/29 07:47:55;;;;;;;16.02;8.93;;;;;;;7.54;99.41;100572.56;10485046;28;20051;-82
2021/12/29 07:52:58;;;;;;;17.38;9.18;;;;;;;7.54;98.98;100579.38;10457890;28;20464;-83
2021/12/29 07:58:00;;;;;;;16.98;8.20;;;;;;;7.51;99.74;100595.53;10476762;28;20091;-83
2021/12/29 08:03:01;;;;;;;16.15;7.90;;;;;;;7.55;99.34;100610.22;10461166;28;20049;-83
2021/12/29 08:08:05;;;;;;;14.57;8.35;;;;;;;7.52;99.32;100607.53;10489836;28;20094;-83
2021/12/29 08:13:08;;;;;;;19.25;9.38;;;;;;;7.53;99.85;100622.09;10478884;28;20457;-82
2021/12/29 08:18:10;;;;;;;20.60;8.95;;;;;;;7.51;99.31;100622.88;10469723;28;20541;-82
2021/12/29 08:23:12;;;;;;;17.35;9.80;;;;;;;7.51;99.13;100620.31;10481475;28;20423;-83
2021/12/29 08:28:14;;;;;;;25.25;9.60;;;;;;;7.50;99.77;100629.66;10454965;28;20101;-83
2021/12/29 08:33:15;;;;;;;24.95;9.85;;;;;;;7.50;99.53;100637.34;10473414;28;20048;-83
2021/12/29 08:38:18;;;;;;;23.75;10.85;;;;;;;7.51;99.28;100630.56;10480440;28;20408;-82
2021/12/29 08:43:24;;;;;;;29.42;11.88;;;;;;;7.50;98.86;100629.66;10472428;28;20044;-82
2021/12/29 08:48:28;;;;;;;32.60;10.65;;;;;;;7.53;99.01;100623.75;10478717;28;20044;-83
2021/12/29 08:53:30;;;;;;;27.02;11.35;;;;;;;7.56;99.00;100622.19;10486223;28;20119;-83
2021/12/29 08:58:34;;;;;;;34.00;11.77;;;;;;;7.58;98.71;100628.22;10451893;28;20044;-83
2021/12/29 09:03:36;;;;;;;28.17;11.82;;;;;;;7.61;98.83;100617.19;10472989;28;20056;-83
2021/12/29 09:08:38;;;;;;;28.13;11.25;;;;;;;7.58;98.98;100633.38;10470833;28;20084;-83
2021/12/29 09:13:40;;;;;;;27.63;12.73;;;;;;;7.55;98.81;100638.41;10476708;28;20049;-84
2021/12/29 09:18:43;;;;;;;31.83;12.48;;;;;;;7.56;98.49;100650.38;10457230;28;20499;-83
2021/12/29 09:23:45;;;;;;;29.13;11.52;;;;;;;7.58;98.16;100648.75;10451201;28;20056;-82
2021/12/29 09:28:48;;;;;;;33.20;14.00;;;;;;;7.58;97.98;100650.44;10452940;28;20045;-83
2021/12/29 09:33:51;;;;;;;31.65;12.20;;;;;;;7.63;97.67;100647.19;10468810;28;20036;-83
2021/12/29 09:38:52;;;;;;;30.25;13.32;;;;;;;7.63;97.47;100652.31;10472100;28;20051;-83
2021/12/29 09:43:54;;;;;;;33.58;13.60;;;;;;;7.73;97.34;100642.38;10472568;28;20033;-83
2021/12/29 09:48:59;;;;;;;42.25;16.13;;;;;;;7.68;97.20;100638.81;10476821;28;20052;-83
2021/12/29 09:54:02;;;;;;;48.40;16.25;;;;;;;7.72;97.20;100638.06;10449465;28;20128;-84
2021/12/29 09:59:04;;;;;;;39.38;16.50;;;;;;;7.77;97.00;100634.84;10431437;28;20427;-84
2021/12/29 10:04:07;;;;;;;46.47;16.52;;;;;;;7.77;97.38;100639.13;10453308;28;20122;-84
2021/12/29 10:09:12;;;;;;;37.20;16.77;;;;;;;7.76;97.33;100642.50;10428920;28;20487;-83
2021/12/29 10:14:16;;;;;;;44.88;16.65;;;;;;;7.76;96.63;100642.50;10453400;28;20044;-83
2021/12/29 10:19:19;;;;;;;46.15;19.77;;;;;;;7.79;97.23;100647.72;10419429;28;20106;-84
2021/12/29 10:24:22;;;;;;;42.92;16.67;;;;;;;7.83;96.39;100641.88;10439113;28;20048;-84
2021/12/29 10:29:28;;;;;;;43.90;17.38;;;;;;;7.89;96.47;100644.66;10458094;28;20059;-83
2021/12/29 10:34:32;;;;;;;38.42;17.70;;;;;;;7.90;96.11;100651.53;10459584;28;21468;-83
2021/12/29 10:39:43;;;;;;;34.47;17.75;;;;;;;7.96;96.19;100649.97;10447720;28;20049;-83
2021/12/29 10:44:48;;;;;;;41.83;20.98;;;;;;;7.87;96.24;100651.41;10436037;28;20382;-84
2021/12/29 10:49:55;;;;;;;33.50;18.70;;;;;;;7.86;96.35;100646.22;10440130;28;20040;-84
2021/12/29 10:54:58;;;;;;;33.17;18.35;;;;;;;7.85;96.02;100635.13;10459273;28;20033;-83
2021/12/29 11:00:03;;;;;;;42.08;21.85;;;;;;;7.81;96.04;100634.97;10451502;28;20068;-83
2021/12/29 11:05:10;;;;;;;37.90;22.45;;;;;;;7.81;95.94;100640.94;10437882;28;20040;-84
2021/12/29 11:10:20;;;;;;;39.40;18.95;;;;;;;7.90;96.49;100633.56;10450128;28;20053;-83
2021/12/29 11:15:32;;;;;;;39.53;21.83;;;;;;;7.92;95.90;100624.22;10437204;28;20044;-83
2021/12/29 11:20:35;;;;;;;39.70;18.98;;;;;;;8.00;95.89;100631.31;10442459;28;20059;-83
2021/12/29 11:25:40;;;;;;;45.17;22.95;;;;;;;7.99;95.17;100639.81;10436529;28;20500;-83
2021/12/29 11:30:45;;;;;;;33.78;21.25;;;;;;;8.01;95.41;100658.66;10470339;28;20075;-84
2021/12/29 11:35:50;;;;;;;34.75;19.83;;;;;;;8.03;95.65;100657.94;10463997;28;20040;-83
2021/12/29 11:40:56;;;;;;;39.63;19.33;;;;;;;8.03;95.33;100655.38;10481865;28;20578;-84
2021/12/29 11:45:58;;;;;;;30.52;17.60;;;;;;;8.06;95.16;100664.84;10455938;28;20468;-83
2021/12/29 11:51:03;;;;;;;31.77;18.90;;;;;;;8.12;95.12;100656.47;10476330;28;20039;-83
2021/12/29 11:56:08;;;;;;;26.98;16.10;;;;;;;8.10;95.09;100653.84;10484637;28;20080;-84
2021/12/29 12:01:14;;;;;;;20.88;13.38;;;;;;;8.08;94.45;100650.34;10457939;28;20032;-82
2021/12/29 12:06:19;;;;;;;24.70;16.02;;;;;;;8.03;94.49;100631.38;10450484;28;20131;-83
2021/12/29 12:11:28;;;;;;;26.30;14.02;;;;;;;8.02;94.37;100632.19;10471973;28;20032;-83
2021/12/29 12:16:34;;;;;;;26.95;14.13;;;;;;;7.95;94.07;100623.47;10469903;28;20048;-83
2021/12/29 12:21:39;;;;;;;26.60;16.58;;;;;;;7.90;93.45;100638.69;10457902;28;20099;-82
2021/12/29 12:27:15;;;;;;;23.20;12.45;;;;;;;7.87;94.38;100615.50;10476407;28;20055;-82
2021/12/29 12:32:20;;;;;;;22.60;13.52;;;;;;;7.83;93.93;100626.50;10457225;28;20045;-87
2021/12/29 12:37:31;;;;;;;22.92;12.70;;;;;;;7.82;94.14;100611.91;10485962;28;20139;-87
2021/12/29 12:42:34;;;;;;;24.00;13.13;;;;;;;7.82;94.21;100595.69;10473902;28;20051;-87
2021/12/29 12:47:35;;;;;;;24.48;12.48;;;;;;;7.84;94.13;100594.91;10460083;28;20051;-87
2021/12/29 12:52:43;;;;;;;25.02;14.85;;;;;;;7.83;94.22;100582.88;10479018;28;20239;-87
2021/12/29 12:57:47;;;;;;;27.73;16.30;;;;;;;7.82;94.13;100570.03;10465612;28;20132;-87
2021/12/29 13:03:00;;;;;;;24.05;13.30;;;;;;;7.85;93.69;100565.88;10455881;28;20068;-87
2021/12/29 13:08:16;;;;;;;19.65;12.25;;;;;;;7.84;93.50;100564.13;10469480;28;20143;-85
2021/12/29 13:13:24;;;;;;;21.85;12.10;;;;;;;7.87;93.57;100553.94;10476774;28;20051;-86
2021/12/29 13:18:26;;;;;;;20.38;12.23;;;;;;;7.84;93.80;100551.28;10469988;28;20044;-87
2021/12/29 13:23:28;;;;;;;24.40;14.63;;;;;;;7.79;93.43;100570.78;10482738;28;20040;-87
2021/12/29 13:28:31;;;;;;;24.45;13.13;;;;;;;7.80;93.78;100536.63;10468305;28;20124;-87
2021/12/29 13:33:36;;;;;;;21.35;12.63;;;;;;;7.78;92.92;100554.53;10482064;28;20076;-87
2021/12/29 13:38:39;;;;;;;58.47;30.83;;;;;;;7.78;93.08;100541.72;10473265;28;20043;-86
2021/12/29 13:43:54;;;;;;;25.88;15.25;;;;;;;7.76;93.79;100548.47;10452006;28;20491;-86
2021/12/29 13:49:00;;;;;;;24.13;16.02;;;;;;;7.78;93.78;100538.28;10481393;28;20116;-85
2021/12/29 13:54:07;;;;;;;18.80;11.57;;;;;;;7.72;93.53;100540.63;10463220;28;20119;-86
2021/12/29 13:59:13;;;;;;;19.20;11.38;;;;;;;7.71;94.04;100526.06;10480370;28;20481;-86
2021/12/29 14:04:18;;;;;;;18.77;10.77;;;;;;;7.70;93.56;100517.50;10464930;28;20059;-87
2021/12/29 14:09:21;;;;;;;20.67;10.25;;;;;;;7.67;93.96;100529.38;10452857;28;20048;-86
2021/12/29 14:14:24;;;;;;;17.00;9.20;;;;;;;7.57;94.64;100529.06;10464191;28;20045;-87
2021/12/29 14:19:29;;;;;;;21.10;10.70;;;;;;;7.56;95.28;100519.63;10482792;28;20479;-85
2021/12/29 14:24:38;;;;;;;21.40;12.77;;;;;;;7.57;95.84;100515.38;10445472;28;20037;-87
2021/12/29 14:29:40;;;;;;;24.70;11.80;;;;;;;7.57;95.75;100518.81;10458182;28;20057;-86
2021/12/29 14:34:45;;;;;;;18.73;10.02;;;;;;;7.53;95.77;100522.13;10439650;28;20136;-86
2021/12/29 14:39:48;;;;;;;17.17;10.15;;;;;;;7.54;96.49;100508.47;10467715;28;20064;-87
2021/12/29 14:44:50;;;;;;;27.80;11.10;;;;;;;7.56;96.67;100491.44;10445285;28;20381;-86
2021/12/29 14:50:06;;;;;;;26.38;12.45;;;;;;;7.54;96.94;100495.66;10452501;28;20049;-86
2021/12/29 14:55:21;;;;;;;25.58;11.55;;;;;;;7.53;97.13;100506.72;10494390;28;20395;-86
2021/12/29 15:00:29;;;;;;;23.90;12.48;;;;;;;7.53;97.46;100500.72;10457309;28;20053;-88
2021/12/29 15:05:42;;;;;;;29.27;13.32;;;;;;;7.50;97.99;100475.84;10475485;28;20041;-86
2021/12/29 15:10:45;;;;;;;21.08;10.98;;;;;;;7.48;97.73;100462.16;10482604;28;20071;-87
2021/12/29 15:15:49;;;;;;;22.98;12.30;;;;;;;7.46;97.96;100443.28;10477559;28;20040;-88
2021/12/29 15:21:04;;;;;;;25.52;10.88;;;;;;;7.47;97.88;100460.41;10482303;28;20055;-86
2021/12/29 15:26:07;;;;;;;25.65;11.77;;;;;;;7.48;97.79;100469.84;10496964;28;20053;-88
2021/12/29 15:31:12;;;;;;;32.42;16.00;;;;;;;7.49;98.17;100443.34;10472832;28;20400;-88
2021/12/29 15:36:15;;;;;;;30.10;18.33;;;;;;;7.45;97.96;100396.25;10478054;28;20447;-90
2021/12/29 15:41:19;;;;;;;24.88;13.38;;;;;;;7.49;98.26;100396.34;10468303;28;20076;-87
2021/12/29 15:46:22;;;;;;;20.58;10.00;;;;;;;7.47;98.31;100417.69;10475757;28;20605;-88
2021/12/29 15:51:26;;;;;;;24.10;11.40;;;;;;;7.48;98.59;100451.91;10489621;28;20044;-89
2021/12/29 15:56:28;;;;;;;25.40;10.13;;;;;;;7.49;98.64;100437.38;10475674;28;20059;-89
2021/12/29 16:01:33;;;;;;;22.70;10.32;;;;;;;7.48;99.10;100451.91;10479134;28;20036;-86
2021/12/29 16:06:35;;;;;;;21.30;10.80;;;;;;;7.52;98.83;100463.97;10488513;28;20080;-88
2021/12/29 16:11:37;;;;;;;23.27;9.70;;;;;;;7.51;98.78;100446.00;10488470;28;20048;-87
2021/12/29 16:16:39;;;;;;;21.83;10.80;;;;;;;7.52;99.20;100416.97;10494719;28;20112;-88
2021/12/29 16:21:43;;;;;;;14.38;8.32;;;;;;;7.57;98.77;100421.41;10448354;28;20040;-90
2021/12/29 16:26:45;;;;;;;20.63;11.38;;;;;;;7.59;98.62;100424.88;10498690;28;20459;-87
2021/12/29 16:31:50;;;;;;;25.10;12.05;;;;;;;7.58;99.00;100424.84;10479163;28;20044;-89
2021/12/29 16:36:54;;;;;;;20.50;11.95;;;;;;;7.60;98.53;100407.78;10496437;28;20250;-89
2021/12/29 16:41:55;;;;;;;22.55;13.82;;;;;;;7.65;99.01;100407.94;10497465;28;20123;-88
2021/12/29 16:47:00;;;;;;;21.02;9.80;;;;;;;7.59;99.48;100399.25;10494543;28;20503;-89
2021/12/29 16:52:06;;;;;;;20.38;13.18;;;;;;;7.65;99.35;100407.94;10497810;28;20095;-87
2021/12/29 16:57:08;;;;;;;20.27;11.85;;;;;;;7.63;99.50;100411.31;10448968;28;20045;-88
2021/12/29 17:02:12;;;;;;;22.52;12.90;;;;;;;7.66;99.22;100402.88;10470864;28;20045;-88
2021/12/29 17:07:14;;;;;;;21.80;14.45;;;;;;;7.74;99.47;100400.53;10477775;28;20044;-86
2021/12/29 17:12:24;;;;;;;;;;;;;;;7.70;99.39;100386.75;10445221;28;20045;-87
2021/12/29 17:17:26;;;;;;;24.50;15.13;;;;;;;7.74;99.89;100377.44;10467784;28;20330;-86
2021/12/29 17:22:31;;;;;;;26.60;12.73;;;;;;;7.72;99.91;100379.09;10472664;28;20476;-87
2021/12/29 17:27:33;;;;;;;20.63;12.73;;;;;;;7.75;100.00;100392.88;10478867;28;20512;-88
2021/12/29 17:32:36;;;;;;;27.27;16.10;;;;;;;7.80;100.00;100377.63;10470351;28;20049;-88
2021/12/29 17:37:40;;;;;;;28.80;18.58;;;;;;;7.83;99.95;100376.81;10466006;28;20075;-88
2021/12/29 17:42:45;;;;;;;25.95;15.60;;;;;;;7.86;100.00;100382.91;10473121;28;20045;-90
2021/12/29 17:47:47;;;;;;;30.67;17.35;;;;;;;7.95;100.00;100387.47;10478784;28;20418;-89
2021/12/29 17:52:50;;;;;;;29.77;18.13;;;;;;;7.97;100.00;100379.78;10454492;28;20068;-88
2021/12/29 17:57:52;;;;;;;31.05;16.38;;;;;;;8.00;100.00;100401.28;10457734;28;20043;-92
2021/12/29 18:02:55;;;;;;;32.40;18.13;;;;;;;8.02;100.00;100424.41;10449926;28;20045;-89
2021/12/29 18:07:57;;;;;;;36.65;23.63;;;;;;;8.10;100.00;100421.25;10471373;28;20044;-88
2021/12/29 18:13:00;;;;;;;29.77;16.58;;;;;;;8.13;100.00;100384.53;10477614;28;20134;-88
2021/12/29 18:18:07;;;;;;;39.13;23.83;;;;;;;8.20;100.00;100424.03;10471108;28;20393;-90
2021/12/29 18:23:12;;;;;;;30.00;16.08;;;;;;;8.20;100.00;100427.50;10489710;28;20043;-89
2021/12/29 18:28:14;;;;;;;33.03;17.35;;;;;;;8.25;100.00;100400.25;10462689;28;20064;-90
2021/12/29 18:33:16;;;;;;;29.75;15.45;;;;;;;8.35;100.00;100408.22;10471445;28;20105;-89
2021/12/29 18:38:23;;;;;;;29.52;14.38;;;;;;;8.39;100.00;100435.69;10458180;28;20139;-89
2021/12/29 18:43:28;;;;;;;38.50;20.42;;;;;;;8.51;100.00;100415.53;10502945;28;20058;-88
2021/12/29 18:48:37;;;;;;;45.92;23.25;;;;;;;8.64;100.00;100426.13;10508926;28;20048;-91
2021/12/29 18:53:39;;;;;;;42.42;18.92;;;;;;;8.72;100.00;100433.19;10463278;28;20488;-92
2021/12/29 18:58:50;;;;;;;61.72;28.75;;;;;;;8.98;100.00;100437.22;10466893;28;20040;-90
2021/12/29 19:03:52;;;;;;;39.08;16.17;;;;;;;9.07;100.00;100458.03;10479081;28;20052;-89
2021/12/29 19:08:56;;;;;;;54.35;19.92;;;;;;;9.31;100.00;100473.16;10477330;28;20036;-88
2021/12/29 19:14:02;;;;;;;51.17;19.27;;;;;;;9.43;100.00;100467.44;10516289;28;20483;-89
2021/12/29 19:19:36;;;;;;;56.97;21.38;;;;;;;9.63;100.00;100467.06;10454531;28;20079;-87
2021/12/29 19:24:42;;;;;;;71.65;27.15;;;;;;;9.83;100.00;100470.06;10473236;28;20059;-89
2021/12/29 19:29:47;;;;;;;63.90;22.77;;;;;;;9.90;100.00;100486.50;10457068;28;20121;-88
2021/12/29 19:34:50;;;;;;;71.53;22.02;;;;;;;10.05;100.00;100506.59;10458896;28;20052;-89
2021/12/29 19:39:54;;;;;;;66.38;22.85;;;;;;;10.11;100.00;100515.28;10495826;28;20048;-89
2021/12/29 19:44:58;;;;;;;82.15;26.80;;;;;;;10.29;100.00;100525.09;10472641;28;20056;-90
2021/12/29 19:50:04;;;;;;;77.10;21.65;;;;;;;10.40;100.00;100543.38;10462560;28;20048;-88
2021/12/29 19:55:15;;;;;;;69.10;22.63;;;;;;;10.50;100.00;100544.44;10446169;28;20507;-90
2021/12/29 20:00:25;;;;;;;69.82;22.85;;;;;;;10.58;100.00;100567.78;10490301;28;20117;-91
2021/12/29 20:05:27;;;;;;;69.40;22.47;;;;;;;10.63;100.00;100576.47;10493983;28;20045;-90
2021/12/29 20:10:33;;;;;;;66.97;19.90;;;;;;;10.78;100.00;100581.94;10466650;28;20090;-91
2021/12/29 20:15:35;;;;;;;74.28;21.88;;;;;;;10.77;100.00;100575.03;10468952;28;20045;-92
2021/12/29 20:20:38;;;;;;;61.25;18.60;;;;;;;10.78;100.00;100587.09;10501036;28;20040;-91
2021/12/29 20:25:40;;;;;;;62.45;17.55;;;;;;;10.80;100.00;100592.25;10482096;28;20483;-92
2021/12/29 20:30:43;;;;;;;48.83;16.50;;;;;;;10.80;100.00;100605.16;10481878;28;20506;-92
2021/12/29 20:35:45;;;;;;;51.42;16.25;;;;;;;10.85;99.81;100620.72;10462962;28;20087;-89
2021/12/29 20:40:49;;;;;;;59.10;16.58;;;;;;;10.89;99.34;100631.13;10468363;28;20076;-91
2021/12/29 20:45:58;;;;;;;61.75;16.25;;;;;;;10.88;99.15;100657.72;10472309;28;20101;-89
2021/12/29 20:51:00;;;;;;;52.35;16.17;;;;;;;10.86;98.69;100661.13;10487456;28;20073;-92
2021/12/29 20:56:04;;;;;;;46.92;14.10;;;;;;;10.86;98.80;100676.56;10484233;28;20052;-91
2021/12/29 21:01:08;;;;;;;51.47;15.55;;;;;;;10.95;98.44;100676.78;10469841;28;20445;-92
2021/12/29 21:06:11;;;;;;;48.50;14.52;;;;;;;10.92;97.61;100692.16;10475694;28;20071;-88
2021/12/29 21:11:13;;;;;;;44.45;13.65;;;;;;;10.88;97.73;100716.16;10489879;28;20052;-91
2021/12/29 21:16:15;;;;;;;48.22;13.35;;;;;;;10.86;97.62;100720.38;10481060;28;20052;-91
2021/12/29 21:21:20;;;;;;;50.78;12.60;;;;;;;10.85;97.38;100721.22;10486858;28;20097;-90
2021/12/29 21:26:22;;;;;;;49.55;12.40;;;;;;;10.82;96.82;100727.19;10473145;28;20098;-92
2021/12/29 21:31:27;;;;;;;46.63;9.68;;;;;;;10.73;96.72;100742.44;10479611;28;20052;-91
2021/12/29 21:36:34;;;;;;;59.47;10.15;;;;;;;10.57;96.96;100754.09;10482025;28;20147;-90
2021/12/29 21:41:36;;;;;;;43.83;7.60;;;;;;;10.46;96.62;100772.72;10461348;28;20060;-91
2021/12/29 21:46:41;;;;;;;41.13;7.43;;;;;;;10.27;96.36;100789.44;10461016;28;20059;-90
2021/12/29 21:51:44;;;;;;;39.13;6.45;;;;;;;10.16;96.44;100794.28;10495409;28;20142;-92
2021/12/29 21:56:46;;;;;;;50.70;7.10;;;;;;;10.00;96.39;100805.88;10465387;28;20058;-90
2021/12/29 22:01:48;;;;;;;41.42;5.70;;;;;;;9.86;96.72;100824.38;10478866;28;20461;-91
2021/12/29 22:06:50;;;;;;;55.15;6.28;;;;;;;9.82;96.08;100819.13;10459808;28;20044;-90
2021/12/29 22:11:52;;;;;;;57.63;5.70;;;;;;;9.63;96.43;100832.31;10465195;28;20082;-90
2021/12/29 22:16:55;;;;;;;54.95;6.28;;;;;;;9.60;95.91;100856.25;10474476;28;20036;-90
2021/12/29 22:21:57;;;;;;;53.72;5.53;;;;;;;9.42;96.06;100851.41;10456218;28;20052;-91
2021/12/29 22:27:00;;;;;;;42.03;5.28;;;;;;;9.38;96.37;100853.88;10470381;28;20049;-88
2021/12/29 22:32:05;;;;;;;47.65;5.47;;;;;;;9.33;96.29;100870.03;10477086;28;20045;-88
2021/12/29 22:37:12;;;;;;;54.10;6.55;;;;;;;9.24;96.05;100889.44;10477400;28;20060;-90
2021/12/29 22:42:14;;;;;;;63.38;6.10;;;;;;;9.35;96.17;100885.47;10455099;28;20040;-88
2021/12/29 22:47:17;;;;;;;51.55;5.35;;;;;;;9.33;96.18;100893.16;10458281;28;20923;-90
2021/12/29 22:52:20;;;;;;;55.30;6.82;;;;;;;9.31;95.92;100909.38;10459010;28;20036;-88
2021/12/29 22:57:22;;;;;;;51.15;5.80;;;;;;;9.28;96.21;100917.84;10468554;28;20464;-91
2021/12/29 23:02:26;;;;;;;46.35;6.03;;;;;;;9.23;96.40;100922.00;10461853;28;20049;-90
2021/12/29 23:07:32;;;;;;;49.90;5.80;;;;;;;9.35;95.64;100926.63;10476041;28;20047;-88
2021/12/29 23:12:37;;;;;;;57.63;6.78;;;;;;;9.28;95.69;100937.53;10462285;28;20049;-90
2021/12/29 23:17:39;;;;;;;44.47;6.13;;;;;;;9.23;95.79;100939.09;10480475;28;20507;-90